Time;durP1;ratioP1;P1;durP2;ratioP2;P2;SDS_P1;SDS_P2;PMS_P1;PMS_P2;Temp;Humidity;BMP_temperature;BMP_pressure;BME280_temperature;BME280_humidity;BME280_pressure;Samples;Min_cycle;Max_cycle;Signal;HPM_P1;HPM_P2
2021/03/19 00:02:19;;;;;;;14.55;9.98;;;;;;;4.05;94.20;100109.44;4991455;28;20022;-73
2021/03/19 00:04:45;;;;;;;12.57;9.57;;;;;;;3.88;94.56;100103.56;4993128;28;20026;-73
2021/03/19 00:07:26;;;;;;;12.57;8.55;;;;;;;3.95;93.42;100102.72;4993648;28;20069;-73
2021/03/19 00:10:11;;;;;;;11.63;8.67;;;;;;;4.06;93.18;100099.34;4993879;28;20133;-74
2021/03/19 00:12:38;;;;;;;13.55;9.60;;;;;;;4.05;93.70;100107.75;4993866;28;20524;-73
2021/03/19 00:15:11;;;;;;;17.77;11.45;;;;;;;4.11;93.75;100101.88;4994027;28;20026;-73
2021/03/19 00:17:41;;;;;;;17.75;11.20;;;;;;;3.96;92.34;100101.91;4994818;28;20091;-73
2021/03/19 00:20:13;;;;;;;16.70;11.00;;;;;;;4.15;92.77;100099.38;4995297;28;20026;-73
2021/03/19 00:22:39;;;;;;;17.13;11.07;;;;;;;3.96;92.59;100101.91;4992262;28;20134;-73
2021/03/19 00:25:05;;;;;;;13.07;9.07;;;;;;;4.00;93.79;100096.84;4994828;28;20031;-73
2021/03/19 00:27:40;;;;;;;14.52;10.23;;;;;;;3.98;93.57;100095.19;4993607;28;20546;-73
2021/03/19 00:30:10;;;;;;;26.48;14.18;;;;;;;4.03;92.77;100099.38;4994820;28;20053;-73
2021/03/19 00:32:45;;;;;;;16.10;10.55;;;;;;;3.98;93.01;100100.22;4994371;28;20038;-73
2021/03/19 00:35:12;;;;;;;14.00;10.13;;;;;;;4.24;92.13;100093.47;4994697;28;20344;-73
2021/03/19 00:37:43;;;;;;;13.27;9.48;;;;;;;3.91;92.72;100096.84;4994612;28;20034;-74
2021/03/19 00:40:38;;;;;;;14.43;9.85;;;;;;;3.86;93.73;100091.00;4994460;28;20411;-73
2021/03/19 00:43:07;;;;;;;14.45;10.02;;;;;;;3.88;94.23;100093.50;4993242;28;20092;-73
2021/03/19 00:45:35;;;;;;;14.85;10.05;;;;;;;3.75;93.98;100094.31;4993280;28;20412;-72
2021/03/19 00:48:01;;;;;;;15.93;10.57;;;;;;;3.80;94.65;100093.50;4992955;28;20031;-72
2021/03/19 00:50:35;;;;;;;15.68;10.55;;;;;;;4.22;94.37;100082.59;4992841;28;20522;-72
2021/03/19 00:53:04;;;;;;;15.10;10.35;;;;;;;4.21;93.23;100078.41;4992790;28;20042;-72
2021/03/19 00:55:33;;;;;;;15.35;10.50;;;;;;;4.12;93.11;100071.69;4994345;28;20026;-73
2021/03/19 00:58:09;;;;;;;14.90;10.48;;;;;;;4.38;93.74;100082.56;4993042;28;20022;-73
2021/03/19 01:00:37;;;;;;;13.38;9.52;;;;;;;4.00;92.92;100091.81;4994037;28;20030;-74
2021/03/19 01:03:04;;;;;;;14.93;10.70;;;;;;;3.97;93.20;100071.72;4994012;28;20026;-73
2021/03/19 01:05:43;;;;;;;14.52;10.50;;;;;;;4.16;93.79;100080.09;4992634;28;20038;-73
2021/03/19 01:08:16;;;;;;;13.40;10.05;;;;;;;3.91;94.03;100084.28;4994115;28;20023;-73
2021/03/19 01:10:54;;;;;;;14.63;10.73;;;;;;;4.33;94.27;100080.91;4994169;28;20428;-73
2021/03/19 01:13:24;;;;;;;15.10;10.60;;;;;;;4.48;93.54;100075.84;4994105;28;20519;-73
2021/03/19 01:15:54;;;;;;;17.00;12.32;;;;;;;4.20;93.30;100075.03;4993006;28;20034;-73
2021/03/19 01:18:27;;;;;;;15.93;11.88;;;;;;;4.41;92.90;100056.56;4993748;28;20428;-74
2021/03/19 01:20:59;;;;;;;17.80;12.40;;;;;;;4.39;92.71;100075.88;4992665;28;20120;-73
2021/03/19 01:23:30;;;;;;;16.88;11.82;;;;;;;4.47;92.09;100060.75;4993535;28;20201;-73
2021/03/19 01:26:05;;;;;;;16.85;11.75;;;;;;;4.15;94.68;100068.34;4994280;28;20026;-73
2021/03/19 01:28:32;;;;;;;16.83;12.20;;;;;;;4.28;94.45;100063.28;4992459;28;20172;-73
2021/03/19 01:31:03;;;;;;;16.05;10.85;;;;;;;4.57;92.01;100057.38;4993568;28;20021;-73
2021/03/19 01:33:36;;;;;;;15.15;10.52;;;;;;;4.45;91.49;100064.94;4993326;28;20510;-72
2021/03/19 01:36:16;;;;;;;15.85;11.65;;;;;;;4.09;93.22;100066.69;4993554;28;20329;-73
2021/03/19 01:39:02;;;;;;;20.60;13.52;;;;;;;3.97;94.81;100071.72;4992138;28;20041;-73
2021/03/19 01:41:32;;;;;;;21.98;14.15;;;;;;;4.16;94.56;100059.97;4993186;28;20041;-73
2021/03/19 01:44:18;;;;;;;18.45;13.07;;;;;;;4.10;95.77;100070.03;4993092;28;20037;-72
2021/03/19 01:47:22;;;;;;;17.23;12.45;;;;;;;4.13;93.78;100065.84;4993118;28;20076;-72
2021/03/19 01:50:31;;;;;;;16.88;12.25;;;;;;;4.14;94.15;100064.16;4992226;28;20069;-72
2021/03/19 01:53:37;;;;;;;16.95;11.70;;;;;;;3.99;94.99;100057.47;4993042;28;20035;-72
2021/03/19 01:56:40;;;;;;;15.73;11.25;;;;;;;3.99;94.40;100061.66;4993014;28;20066;-73
2021/03/19 01:59:45;;;;;;;16.35;11.30;;;;;;;4.43;93.83;100057.41;4991926;28;20503;-73
2021/03/19 02:02:48;;;;;;;15.50;10.70;;;;;;;4.46;93.24;100051.53;4991649;28;20049;-73
2021/03/19 02:05:59;;;;;;;16.75;11.52;;;;;;;3.97;93.61;100046.56;4992638;28;20034;-73
2021/03/19 02:09:12;;;;;;;20.80;14.02;;;;;;;4.00;93.77;100045.72;4991672;28;20030;-73
2021/03/19 02:12:19;;;;;;;18.65;12.32;;;;;;;3.79;93.22;100043.19;4991575;28;20038;-73
2021/03/19 02:15:34;;;;;;;17.17;11.45;;;;;;;3.96;92.98;100049.91;4992971;28;20026;-73
2021/03/19 02:18:39;;;;;;;17.88;11.52;;;;;;;3.79;93.93;100048.22;4992928;28;20038;-73
2021/03/19 02:24:55;;;;;;;17.33;11.85;;;;;;;3.66;95.94;100049.06;4992709;28;20120;-73
2021/03/19 02:28:09;;;;;;;16.00;10.25;;;;;;;3.89;96.04;100049.91;4992492;28;20488;-74
2021/03/19 02:31:23;;;;;;;13.77;9.25;;;;;;;3.94;94.62;100053.28;4991258;28;20041;-73
2021/03/19 02:33:58;;;;;;;14.43;9.48;;;;;;;3.63;95.14;100051.56;4992677;28;20030;-74
2021/03/19 02:36:33;;;;;;;12.43;8.95;;;;;;;4.02;95.24;100054.13;4992317;28;20034;-74
2021/03/19 02:39:17;;;;;;;13.07;8.98;;;;;;;4.27;94.13;100061.63;4992514;28;20034;-73
2021/03/19 02:41:56;;;;;;;12.77;8.77;;;;;;;3.98;94.43;100063.31;4992487;28;20061;-73
2021/03/19 02:44:47;;;;;;;12.85;8.98;;;;;;;3.84;95.71;100061.66;4990894;28;20030;-74
2021/03/19 02:47:18;;;;;;;14.05;9.38;;;;;;;3.87;95.27;100059.13;4992798;28;20112;-74
2021/03/19 02:50:10;;;;;;;15.48;10.35;;;;;;;4.31;94.69;100060.78;4993048;28;20473;-74
2021/03/19 02:52:47;;;;;;;15.10;10.07;;;;;;;4.04;94.34;100050.75;4992218;28;20523;-73
2021/03/19 02:55:16;;;;;;;13.48;9.30;;;;;;;3.78;96.12;100052.44;4990896;28;20030;-74
2021/03/19 02:57:53;;;;;;;15.00;10.45;;;;;;;4.23;94.87;100057.44;4990932;28;20077;-73
2021/03/19 03:00:24;;;;;;;14.70;10.10;;;;;;;4.00;95.80;100058.31;4992262;28;20156;-74
2021/03/19 03:03:03;;;;;;;14.20;9.83;;;;;;;4.39;93.87;100043.16;4992109;28;20045;-73
2021/03/19 03:05:31;;;;;;;12.88;9.25;;;;;;;4.17;94.43;100057.44;4992105;28;20799;-73
2021/03/19 03:08:07;;;;;;;13.90;9.38;;;;;;;4.31;94.64;100052.41;4992008;28;20080;-73
2021/03/19 03:10:34;;;;;;;13.23;8.93;;;;;;;4.21;96.02;100064.16;4992164;28;20030;-73
2021/03/19 03:13:03;;;;;;;14.43;8.90;;;;;;;4.37;95.52;100064.97;4990825;28;20053;-73
2021/03/19 03:15:30;;;;;;;15.30;10.00;;;;;;;4.76;93.32;100064.84;4992123;28;20073;-73
2021/03/19 03:17:56;;;;;;;20.40;11.35;;;;;;;4.55;92.61;100062.41;4991996;28;20022;-73
2021/03/19 03:20:33;;;;;;;21.13;11.00;;;;;;;4.52;93.76;100059.88;4990591;28;20030;-73
2021/03/19 03:22:58;;;;;;;16.33;10.48;;;;;;;4.59;93.93;100053.16;4991530;28;20104;-73
2021/03/19 03:25:27;;;;;;;15.80;10.07;;;;;;;4.30;94.15;100044.00;4991063;28;20121;-73
2021/03/19 03:28:06;;;;;;;14.27;9.65;;;;;;;4.26;94.14;100054.06;4991819;28;20062;-73
2021/03/19 03:30:53;;;;;;;16.30;10.65;;;;;;;4.55;92.47;100047.31;4990481;28;20117;-73
2021/03/19 03:33:25;;;;;;;17.08;11.50;;;;;;;4.16;94.41;100062.50;4990793;28;20100;-73
2021/03/19 03:36:01;;;;;;;16.27;10.75;;;;;;;4.39;93.11;100064.13;4991694;28;20105;-73
2021/03/19 03:38:28;;;;;;;16.67;11.23;;;;;;;4.59;93.26;100064.09;4990650;28;20031;-73
2021/03/19 03:41:04;;;;;;;16.63;11.80;;;;;;;4.72;91.76;100068.22;4995172;28;20026;-73
2021/03/19 03:44:04;;;;;;;14.88;9.95;;;;;;;4.74;91.85;100068.22;4994312;28;20027;-72
2021/03/19 03:46:58;;;;;;;14.15;10.05;;;;;;;4.57;92.83;100068.28;4995675;28;20038;-73
2021/03/19 03:49:25;;;;;;;23.50;11.55;;;;;;;4.61;92.96;100067.44;4995599;28;20109;-72
2021/03/19 03:51:54;;;;;;;17.70;10.75;;;;;;;4.59;92.45;100071.63;4993880;28;20424;-71
2021/03/19 03:54:21;;;;;;;15.98;9.93;;;;;;;4.48;93.92;100075.84;4995491;28;20026;-73
2021/03/19 03:56:58;;;;;;;17.38;13.20;;;;;;;4.66;92.75;100067.41;4995539;28;20169;-73
2021/03/19 03:59:24;;;;;;;15.98;11.63;;;;;;;4.55;93.54;100074.16;4995337;28;20025;-73
2021/03/19 04:01:52;;;;;;;16.00;11.95;;;;;;;4.47;92.66;100076.69;4995286;28;20030;-72
2021/03/19 04:04:25;;;;;;;14.77;11.00;;;;;;;4.39;93.31;100075.88;4994071;28;20033;-73
2021/03/19 04:06:52;;;;;;;13.43;10.15;;;;;;;4.42;92.95;100083.41;4995077;28;20034;-73
2021/03/19 04:09:19;;;;;;;24.60;15.80;;;;;;;4.28;93.71;100075.03;4994169;28;20025;-73
2021/03/19 04:11:53;;;;;;;78.32;38.63;;;;;;;4.48;92.64;100078.34;4994332;28;20080;-74
2021/03/19 04:14:22;;;;;;;64.18;32.95;;;;;;;4.56;92.88;100066.59;4993721;28;20023;-72
2021/03/19 04:16:49;;;;;;;31.27;18.73;;;;;;;4.20;94.53;100076.72;4994812;28;20054;-72
2021/03/19 04:19:19;;;;;;;17.48;11.68;;;;;;;4.44;94.65;100070.84;4993549;28;20053;-73
2021/03/19 04:21:45;;;;;;;17.13;11.77;;;;;;;4.45;92.67;100068.31;4994662;28;20023;-72
2021/03/19 04:24:18;;;;;;;18.77;12.18;;;;;;;4.44;92.63;100068.31;4994652;28;20065;-73
2021/03/19 04:26:51;;;;;;;24.33;16.90;;;;;;;4.34;93.33;100067.47;4994670;28;20161;-74
2021/03/19 04:29:24;;;;;;;23.48;15.98;;;;;;;4.52;92.50;100062.41;4994679;28;20050;-73
2021/03/19 04:31:56;;;;;;;25.65;17.33;;;;;;;4.56;91.51;100071.63;4994904;28;20027;-73
2021/03/19 04:34:24;;;;;;;26.88;17.13;;;;;;;4.47;92.86;100069.16;4994685;28;20019;-73
2021/03/19 04:36:57;;;;;;;19.67;14.05;;;;;;;4.22;94.18;100075.03;4993387;28;20496;-73
2021/03/19 04:39:28;;;;;;;22.25;14.35;;;;;;;4.30;93.13;100071.69;4994617;28;20029;-74
2021/03/19 04:41:55;;;;;;;21.75;13.95;;;;;;;4.62;93.26;100073.28;4994720;28;20054;-74
2021/03/19 04:44:28;;;;;;;22.30;14.60;;;;;;;4.33;93.00;100073.38;4993163;28;20030;-73
2021/03/19 04:46:59;;;;;;;23.67;16.30;;;;;;;4.34;93.10;100072.50;4993413;28;20192;-74
2021/03/19 04:49:27;;;;;;;;;;;;;;;4.55;92.20;100072.47;4993861;28;20030;-74
2021/03/19 04:51:53;;;;;;;23.25;15.82;;;;;;;4.57;92.92;100072.47;4994297;28;19980;-73
2021/03/19 04:54:21;;;;;;;27.50;17.42;;;;;;;4.39;93.88;100078.38;4994538;28;20393;-74
2021/03/19 04:56:47;;;;;;;28.85;19.52;;;;;;;4.09;94.11;100078.41;4994357;28;20547;-73
2021/03/19 04:59:22;;;;;;;27.52;19.65;;;;;;;4.01;94.90;100075.91;4992983;28;20057;-74
2021/03/19 05:01:59;;;;;;;26.17;18.98;;;;;;;4.51;94.88;100067.44;4994550;28;20110;-74
2021/03/19 05:04:49;;;;;;;27.70;20.02;;;;;;;4.19;95.07;100077.56;4993660;28;20184;-73
2021/03/19 05:07:51;;;;;;;21.85;15.23;;;;;;;4.63;94.56;100077.50;4993582;28;20031;-74
2021/03/19 05:10:32;;;;;;;20.55;14.40;;;;;;;4.66;93.60;100077.47;4993088;28;20128;-74
2021/03/19 05:13:07;;;;;;;19.77;12.73;;;;;;;5.21;94.89;100072.22;4992777;28;20038;-74
2021/03/19 05:15:46;;;;;;;20.58;13.43;;;;;;;4.24;93.66;100064.13;4993004;28;20030;-78
2021/03/19 05:18:57;;;;;;;19.55;13.68;;;;;;;4.39;93.94;100084.25;4994468;28;20093;-77
2021/03/19 05:21:48;;;;;;;24.90;15.27;;;;;;;4.50;94.46;100093.47;4992779;28;20035;-78
2021/03/19 05:24:19;;;;;;;29.25;17.00;;;;;;;4.69;93.65;100093.44;4994038;28;20111;-76
2021/03/19 05:26:58;;;;;;;54.65;29.60;;;;;;;4.81;93.73;100087.50;4994451;28;20041;-77
2021/03/19 05:29:44;;;;;;;53.80;33.75;;;;;;;4.50;93.60;100101.03;4993116;28;20379;-77
2021/03/19 05:35:55;;;;;;;49.67;27.02;;;;;;;4.71;92.78;100103.50;5001731;28;20038;-77
2021/03/19 05:38:26;;;;;;;31.52;21.42;;;;;;;4.55;94.15;100105.22;5004963;28;20058;-76
2021/03/19 05:41:03;;;;;;;27.05;17.65;;;;;;;4.87;92.96;100100.91;5013107;28;20034;-77
2021/03/19 05:43:37;;;;;;;19.42;14.27;;;;;;;5.08;92.27;100085.72;5013062;28;20030;-81
2021/03/19 05:46:27;;;;;;;20.30;14.30;;;;;;;5.16;92.79;100098.28;5011465;28;20542;-79
2021/03/19 05:49:23;;;;;;;20.52;14.18;;;;;;;5.10;90.35;100108.38;5012004;28;20120;-80
2021/03/19 05:51:56;;;;;;;23.10;14.32;;;;;;;4.82;91.66;100114.34;5012202;28;20038;-78
2021/03/19 05:54:44;;;;;;;33.97;21.27;;;;;;;4.95;92.41;100116.00;5013264;28;20518;-77
2021/03/19 05:57:30;;;;;;;40.42;29.40;;;;;;;4.82;90.14;100077.44;5011664;28;20028;-79
2021/03/19 05:59:59;;;;;;;51.60;42.10;;;;;;;4.88;92.02;100114.34;5011193;28;20113;-82
2021/03/19 06:02:43;;;;;;;30.55;21.08;;;;;;;4.78;92.21;100123.59;5011068;28;20108;-78
2021/03/19 06:05:25;;;;;;;25.02;16.67;;;;;;;5.12;92.53;100125.19;5010137;28;20061;-79
2021/03/19 06:08:03;;;;;;;23.20;17.65;;;;;;;5.19;90.15;100126.81;5009138;28;20028;-79
2021/03/19 06:10:34;;;;;;;22.35;16.65;;;;;;;4.94;90.81;100122.72;5009618;28;20089;-78
2021/03/19 06:13:17;;;;;;;23.63;16.52;;;;;;;5.15;90.91;100115.06;5009137;28;20060;-77
2021/03/19 06:15:52;;;;;;;21.27;14.23;;;;;;;4.76;91.39;100114.38;5010388;28;20038;-79
2021/03/19 06:18:20;;;;;;;20.33;14.48;;;;;;;5.02;91.18;100126.06;5004822;28;20073;-78
2021/03/19 06:20:55;;;;;;;20.70;13.68;;;;;;;4.98;92.05;100141.19;4659426;28;10000588;-76
2021/03/19 06:23:23;;;;;;;18.30;13.07;;;;;;;4.86;90.48;100126.94;5003367;28;20438;-76
2021/03/19 06:26:20;;;;;;;16.48;11.98;;;;;;;4.92;90.99;100138.69;5004703;28;20033;-76
2021/03/19 06:29:03;;;;;;;18.77;11.90;;;;;;;5.22;89.15;100133.53;5007061;28;20100;-77
2021/03/19 06:31:32;;;;;;;17.15;11.80;;;;;;;4.72;91.30;100136.22;5008927;28;20042;-78
2021/03/19 06:34:15;;;;;;;15.07;10.85;;;;;;;4.77;91.65;100146.28;5008525;28;20029;-77
2021/03/19 06:36:52;;;;;;;16.48;11.00;;;;;;;6.09;92.39;100143.16;5006321;28;20029;-77
2021/03/19 06:39:29;;;;;;;17.85;12.10;;;;;;;5.65;89.14;100145.09;5007252;28;20033;-77
2021/03/19 06:42:27;;;;;;;18.80;13.20;;;;;;;5.56;91.12;100142.63;5006293;28;20056;-77
2021/03/19 06:45:08;;;;;;;18.42;12.43;;;;;;;5.48;88.17;100140.97;5006030;28;20038;-76
2021/03/19 06:47:56;;;;;;;17.53;12.43;;;;;;;5.78;89.69;100143.34;5007645;28;20029;-76
2021/03/19 06:50:21;;;;;;;18.60;11.93;;;;;;;5.75;89.75;100149.25;5006728;28;20042;-76
2021/03/19 06:52:47;;;;;;;18.05;11.57;;;;;;;5.82;90.04;100125.63;5008603;28;20034;-77
2021/03/19 06:55:36;;;;;;;18.77;13.20;;;;;;;5.39;89.18;100151.13;5007527;28;20030;-77
2021/03/19 06:58:02;;;;;;;19.67;13.40;;;;;;;5.36;89.79;100153.63;5006606;28;20044;-76
2021/03/19 07:00:41;;;;;;;19.25;12.93;;;;;;;6.22;89.82;100153.16;5005993;28;20022;-77
2021/03/19 07:03:34;;;;;;;19.05;13.05;;;;;;;6.43;85.58;100158.03;5006462;28;20058;-77
2021/03/19 07:06:21;;;;;;;16.73;11.70;;;;;;;5.54;87.45;100161.13;5005255;28;20141;-78
2021/03/19 07:09:01;;;;;;;15.77;11.95;;;;;;;5.58;85.86;100120.78;5007407;28;20042;-78
2021/03/19 07:11:37;;;;;;;13.30;10.10;;;;;;;5.73;88.41;100157.66;5007770;28;20042;-78
2021/03/19 07:14:24;;;;;;;17.85;10.38;;;;;;;6.44;85.85;100157.19;5006866;28;20499;-78
2021/03/19 07:17:10;;;;;;;37.47;23.10;;;;;;;5.98;85.45;100159.22;5010427;28;20077;-80
2021/03/19 07:20:08;;;;;;;19.35;13.48;;;;;;;5.81;85.23;100164.34;5011508;28;20500;-77
2021/03/19 07:22:59;;;;;;;15.45;10.85;;;;;;;6.01;85.11;100162.56;5029119;28;20053;-77
2021/03/19 07:25:50;;;;;;;13.98;9.65;;;;;;;5.83;85.12;100165.19;5031910;28;20101;-77
2021/03/19 07:28:19;;;;;;;30.88;15.18;;;;;;;5.95;85.24;100172.69;5029928;28;20038;-77
2021/03/19 07:30:57;;;;;;;14.60;9.38;;;;;;;5.94;84.79;100175.22;5030812;28;20035;-77
2021/03/19 07:34:00;;;;;;;22.45;14.65;;;;;;;5.88;86.50;100170.22;5030903;28;20133;-79
2021/03/19 07:36:55;;;;;;;37.00;17.58;;;;;;;5.81;85.13;100176.09;5030086;28;20029;-77
2021/03/19 07:39:28;;;;;;;17.23;10.88;;;;;;;5.72;84.96;100174.50;5028889;28;20155;-79
2021/03/19 07:42:15;;;;;;;18.27;12.40;;;;;;;5.70;87.91;100171.13;5029097;28;20051;-78
2021/03/19 07:45:02;;;;;;;27.08;16.13;;;;;;;5.84;85.74;100173.59;5029995;28;20487;-79
2021/03/19 07:48:08;;;;;;;13.98;10.50;;;;;;;5.67;85.26;100180.38;5029807;28;20047;-76
2021/03/19 07:51:04;;;;;;;22.38;14.15;;;;;;;5.64;85.35;100173.69;5047373;28;20581;-77
2021/03/19 07:53:50;;;;;;;44.20;20.90;;;;;;;5.86;84.26;100187.06;5031058;28;20036;-78
2021/03/19 07:56:31;;;;;;;64.47;28.75;;;;;;;5.83;84.04;100176.94;5026141;28;20044;-80
2021/03/19 07:59:18;;;;;;;19.35;12.63;;;;;;;5.86;84.80;100184.53;5007604;28;20112;-78
2021/03/19 08:01:56;;;;;;;14.25;10.85;;;;;;;5.91;84.55;100197.94;5008300;28;20526;-77
2021/03/19 08:04:53;;;;;;;15.90;12.40;;;;;;;5.91;86.17;100195.41;5012113;28;20577;-79
2021/03/19 08:07:41;;;;;;;37.15;17.55;;;;;;;5.91;86.93;100200.47;5008119;28;20040;-78
2021/03/19 08:10:16;;;;;;;13.55;10.70;;;;;;;5.53;86.65;100209.84;5008628;28;20029;-76
2021/03/19 08:12:57;;;;;;;30.88;15.98;;;;;;;5.66;88.29;100192.16;5007405;28;20139;-79
2021/03/19 08:15:51;;;;;;;19.73;13.13;;;;;;;5.91;87.44;100196.25;5007943;28;20133;-79
2021/03/19 08:18:47;;;;;;;15.73;11.95;;;;;;;5.55;86.32;100172.88;5007866;28;20069;-78
2021/03/19 08:21:23;;;;;;;14.98;10.77;;;;;;;5.79;83.65;100203.00;5006570;28;20085;-77
2021/03/19 08:24:13;;;;;;;20.90;15.02;;;;;;;6.08;84.65;100201.22;5007739;28;20058;-77
2021/03/19 08:26:51;;;;;;;27.92;17.95;;;;;;;6.02;84.56;100207.13;5008363;28;20487;-81
2021/03/19 08:29:38;;;;;;;16.27;10.98;;;;;;;5.78;82.85;100206.41;5006795;28;20132;-81
2021/03/19 08:32:43;;;;;;;24.88;15.35;;;;;;;5.80;82.77;100217.31;5008052;28;20057;-77
2021/03/19 08:35:23;;;;;;;28.13;15.43;;;;;;;5.85;82.43;100210.59;5008868;28;20034;-80
2021/03/19 08:38:11;;;;;;;17.17;11.43;;;;;;;5.91;82.17;100210.56;5008910;28;20385;-81
2021/03/19 08:40:46;;;;;;;21.23;14.13;;;;;;;5.79;80.92;100195.44;5007551;28;20526;-77
2021/03/19 08:43:38;;;;;;;15.77;11.05;;;;;;;5.79;80.78;100191.25;5006982;28;20045;-78
2021/03/19 08:46:26;;;;;;;19.20;12.73;;;;;;;6.14;79.99;100208.72;5007950;28;20025;-77
2021/03/19 08:48:57;;;;;;;16.10;11.00;;;;;;;5.79;80.59;100218.16;5006650;28;20046;-79
2021/03/19 08:51:34;;;;;;;14.70;10.63;;;;;;;6.22;79.03;100217.06;5006374;28;20470;-84
2021/03/19 08:54:11;;;;;;;29.17;14.98;;;;;;;5.59;80.58;100219.91;5007434;28;20029;-90
2021/03/19 08:56:40;;;;;;;44.22;18.65;;;;;;;5.91;80.91;100200.47;5007401;28;20115;-79
2021/03/19 08:59:06;;;;;;;94.47;31.60;;;;;;;5.90;82.54;100208.88;5007538;28;20092;-82
2021/03/19 09:01:52;;;;;;;29.20;13.75;;;;;;;5.54;80.10;100206.50;5008037;28;20103;-81
2021/03/19 09:04:38;;;;;;;17.25;10.52;;;;;;;5.92;81.62;100207.19;5005555;28;20567;-81
2021/03/19 09:07:26;;;;;;;39.63;16.52;;;;;;;5.91;83.22;100216.44;5004847;28;20435;-81
2021/03/19 09:09:54;;;;;;;47.28;22.95;;;;;;;6.05;80.65;100198.69;5005214;28;20057;-82
2021/03/19 09:12:24;;;;;;;33.95;19.27;;;;;;;5.96;83.88;100214.72;5004949;28;20030;-82
2021/03/19 09:15:12;;;;;;;19.83;13.05;;;;;;;6.06;80.23;100223.09;5005908;28;20041;-80
2021/03/19 09:17:44;;;;;;;18.63;13.10;;;;;;;5.69;81.40;100214.00;5021295;28;20037;-81
2021/03/19 09:20:40;;;;;;;55.40;23.60;;;;;;;6.04;82.53;100218.03;5006874;28;20026;-80
2021/03/19 09:23:11;;;;;;;16.17;10.65;;;;;;;5.76;81.85;100224.06;5005122;28;20145;-80
2021/03/19 09:25:45;;;;;;;47.53;22.48;;;;;;;5.68;84.94;100218.22;5005878;28;20038;-82
2021/03/19 09:28:23;;;;;;;18.10;12.70;;;;;;;5.58;84.92;100210.69;5005651;28;20033;-82
2021/03/19 09:31:02;;;;;;;19.65;13.63;;;;;;;5.76;86.13;100221.53;5007328;28;20104;-84
2021/03/19 09:33:45;;;;;;;17.60;12.82;;;;;;;5.57;85.11;100221.59;5005949;28;20120;-79
2021/03/19 09:36:50;;;;;;;27.60;17.48;;;;;;;5.71;87.36;100222.38;5006624;28;20045;-76
2021/03/19 09:39:55;;;;;;;18.05;11.77;;;;;;;6.19;87.11;100217.13;5006120;28;20041;-76
2021/03/19 09:42:21;;;;;;;15.70;11.50;;;;;;;6.41;88.77;100208.53;5005036;28;20065;-80
2021/03/19 09:45:13;;;;;;;17.88;12.00;;;;;;;6.10;84.88;100207.91;5006885;28;20096;-77
2021/03/19 09:47:52;;;;;;;18.15;14.02;;;;;;;6.16;85.83;100208.72;5006504;28;20064;-77
2021/03/19 09:50:27;;;;;;;17.90;11.88;;;;;;;6.47;84.36;100203.44;5005934;28;20045;-77
2021/03/19 09:53:20;;;;;;;19.60;13.38;;;;;;;6.55;85.60;100209.28;5007483;28;20427;-76
2021/03/19 09:55:51;;;;;;;16.13;11.45;;;;;;;6.13;84.49;100214.63;5005468;28;20466;-75
2021/03/19 09:58:37;;;;;;;22.52;14.88;;;;;;;6.36;86.06;100214.50;5007163;28;20167;-76
2021/03/19 10:01:05;;;;;;;17.67;12.30;;;;;;;6.33;85.38;100219.53;5005746;28;20034;-77
2021/03/19 10:03:48;;;;;;;19.90;13.93;;;;;;;6.28;86.14;100214.50;5004735;28;20049;-78
2021/03/19 10:06:44;;;;;;;17.52;11.93;;;;;;;6.08;84.69;100216.34;5005540;28;20487;-76
2021/03/19 10:09:27;;;;;;;15.88;11.43;;;;;;;6.17;85.28;100208.72;5008015;28;20060;-78
2021/03/19 10:12:12;;;;;;;18.95;13.93;;;;;;;6.35;86.46;100207.75;5007205;28;20132;-78
2021/03/19 10:14:40;;;;;;;17.50;12.70;;;;;;;6.21;85.03;100217.09;5006282;28;20034;-78
2021/03/19 10:17:24;;;;;;;18.38;12.00;;;;;;;6.36;84.29;100217.81;5004713;28;20176;-78
2021/03/19 10:19:56;;;;;;;20.65;14.60;;;;;;;6.73;86.04;100216.72;5006624;28;20041;-77
2021/03/19 10:22:38;;;;;;;17.85;11.50;;;;;;;6.58;84.87;100203.34;5006545;28;20466;-79
2021/03/19 10:25:12;;;;;;;;;;;;;;;6.55;83.77;100218.53;5005496;28;20117;-77
2021/03/19 10:27:47;;;;;;;18.10;11.73;;;;;;;6.55;84.58;100219.38;5005963;28;19952;-79
2021/03/19 10:30:32;;;;;;;18.55;12.35;;;;;;;6.12;84.25;100211.25;5009380;28;20026;-79
2021/03/19 10:33:04;;;;;;;16.77;11.32;;;;;;;6.26;84.74;100212.88;5005351;28;20477;-78
2021/03/19 10:35:36;;;;;;;22.40;13.02;;;;;;;6.14;83.37;100216.28;5005854;28;20492;-75
2021/03/19 10:38:23;;;;;;;17.10;12.75;;;;;;;6.53;83.02;100216.03;5006968;28;20026;-79
2021/03/19 10:41:07;;;;;;;26.90;19.50;;;;;;;6.45;86.37;100205.16;5003891;28;20069;-76
2021/03/19 10:43:51;;;;;;;16.15;11.93;;;;;;;6.26;84.33;100211.16;5005809;28;20482;-77
2021/03/19 10:46:30;;;;;;;25.90;18.27;;;;;;;6.29;82.34;100180.03;5005625;28;20399;-82
2021/03/19 10:49:06;;;;;;;33.75;23.00;;;;;;;6.43;84.46;100193.38;5004370;28;20076;-78
2021/03/19 10:51:48;;;;;;;32.83;21.17;;;;;;;6.89;83.48;100202.25;5005770;28;20423;-77
2021/03/19 10:54:25;;;;;;;21.45;14.52;;;;;;;6.58;84.84;100196.63;5004838;28;20040;-77
2021/03/19 10:56:55;;;;;;;22.02;15.65;;;;;;;6.44;84.92;100197.59;5003212;28;20022;-76
2021/03/19 10:59:28;;;;;;;27.40;20.48;;;;;;;6.80;83.32;100205.69;5005855;28;20272;-79
2021/03/19 11:01:53;;;;;;;24.48;16.40;;;;;;;6.71;81.32;100202.41;5006052;28;20030;-79
2021/03/19 11:04:39;;;;;;;24.90;17.80;;;;;;;6.85;83.34;100200.59;5006686;28;20484;-77
2021/03/19 11:07:42;;;;;;;29.10;19.98;;;;;;;6.84;85.11;100194.69;5006318;28;20037;-76
2021/03/19 11:10:13;;;;;;;23.20;17.52;;;;;;;6.26;83.95;100201.06;5006574;28;20525;-78
2021/03/19 11:12:44;;;;;;;25.02;18.27;;;;;;;6.39;85.50;100195.09;5006951;28;20463;-77
2021/03/19 11:15:15;;;;;;;25.15;17.73;;;;;;;6.68;85.44;100194.84;5007350;28;20125;-76
2021/03/19 11:18:07;;;;;;;24.48;16.92;;;;;;;6.02;87.21;100173.50;5006440;28;20029;-75
2021/03/19 11:20:37;;;;;;;20.20;14.15;;;;;;;6.08;87.20;100198.69;5008687;28;20077;-76
2021/03/19 11:23:03;;;;;;;22.70;15.85;;;;;;;6.16;87.92;100199.44;5027439;28;20053;-77
2021/03/19 11:25:49;;;;;;;29.35;21.85;;;;;;;6.40;88.14;100206.84;5004340;28;20026;-76
2021/03/19 11:28:27;;;;;;;30.27;23.65;;;;;;;6.50;86.12;100197.50;5005387;28;20046;-79
2021/03/19 11:30:55;;;;;;;20.42;16.20;;;;;;;5.80;88.57;100187.06;5006197;28;20038;-77
2021/03/19 11:33:20;;;;;;;21.63;16.77;;;;;;;5.87;90.56;100188.72;5005655;28;20069;-77
2021/03/19 11:36:09;;;;;;;26.33;19.17;;;;;;;6.08;89.40;100186.88;5005264;28;20152;-75
2021/03/19 11:38:41;;;;;;;20.75;14.18;;;;;;;6.25;90.13;100180.91;5005462;28;20041;-78
2021/03/19 11:41:28;;;;;;;21.45;13.98;;;;;;;5.91;88.71;100187.84;5007028;28;20689;-76
2021/03/19 11:43:54;;;;;;;22.33;16.40;;;;;;;5.98;88.29;100164.28;5012454;28;20037;-78
2021/03/19 11:46:21;;;;;;;24.08;16.40;;;;;;;6.07;89.50;100179.34;5009011;28;20030;-77
2021/03/19 11:48:51;;;;;;;24.20;17.55;;;;;;;6.34;87.98;100181.66;5007162;28;20117;-77
2021/03/19 11:51:31;;;;;;;18.65;14.55;;;;;;;6.26;87.50;100168.25;5006021;28;20114;-77
2021/03/19 11:54:05;;;;;;;18.58;12.93;;;;;;;6.30;88.00;100164.03;5005638;28;20045;-77
2021/03/19 11:56:33;;;;;;;20.58;14.50;;;;;;;6.12;87.87;100167.50;5006880;28;20045;-77
2021/03/19 11:59:01;;;;;;;20.90;15.75;;;;;;;6.48;84.70;100162.19;5005515;28;20022;-77
2021/03/19 12:01:48;;;;;;;20.63;15.45;;;;;;;6.27;83.61;100180.03;5008754;28;20022;-78
2021/03/19 12:04:44;;;;;;;21.02;15.05;;;;;;;6.43;83.62;100176.56;5013925;28;20061;-78
2021/03/19 12:10:53;;;;;;;14.80;10.97;;;;;;;6.40;84.88;100181.59;5015557;28;20524;-77
2021/03/19 12:14:04;;;;;;;17.70;12.82;;;;;;;6.20;85.84;100172.53;5014461;28;20262;-79
2021/03/19 12:16:48;;;;;;;23.90;16.10;;;;;;;6.36;88.11;100171.56;5015231;28;20042;-79
2021/03/19 12:19:48;;;;;;;24.00;16.38;;;;;;;6.03;85.93;100170.13;5014074;28;20427;-79
2021/03/19 12:29:23;;;;;;;25.33;17.88;;;;;;;6.60;84.17;100157.03;5015099;28;20048;-79
2021/03/19 12:31:55;;;;;;;29.33;18.73;;;;;;;6.81;83.38;100153.47;5014202;28;20030;-79
2021/03/19 12:34:43;;;;;;;28.23;18.48;;;;;;;7.11;83.25;100163.22;5014241;28;20049;-79